createdAt,value
2023-03-06T00:48:07.828Z,540.00
2023-03-06T00:56:07.714Z,543.00
2023-03-06T00:57:07.752Z,537.00
2023-03-06T00:58:07.794Z,540.00
2023-03-06T00:59:07.842Z,541.00
2023-03-06T01:00:07.895Z,544.00
2023-03-06T01:01:08.032Z,539.00
2023-03-06T01:02:08.033Z,539.00
2023-03-06T01:03:08.132Z,538.00
2023-03-06T01:04:08.328Z,542.00
2023-03-06T01:05:08.175Z,539.00
2023-03-06T01:06:08.235Z,544.00
2023-03-06T01:07:08.298Z,541.00
2023-03-06T01:08:08.364Z,540.00
2023-03-06T01:09:08.426Z,538.00
2023-03-06T01:10:08.481Z,540.00
2023-03-06T01:11:08.532Z,542.00
2023-03-06T01:12:08.590Z,542.00
2023-03-06T01:13:08.673Z,542.00
2023-03-06T01:14:08.718Z,539.00
2023-03-06T01:15:08.769Z,542.00
2023-03-06T01:16:08.933Z,542.00
2023-03-06T01:17:08.890Z,538.00
2023-03-06T01:18:08.946Z,536.00
2023-03-06T01:19:09.003Z,537.00
2023-03-06T01:20:09.076Z,538.00
2023-03-06T01:21:09.130Z,538.00
2023-03-06T01:22:09.191Z,536.00
2023-03-06T01:23:09.241Z,539.00
2023-03-06T01:24:09.330Z,540.00
2023-03-06T01:25:09.368Z,541.00
2023-03-06T01:26:09.468Z,543.00
2023-03-06T01:27:09.491Z,543.00
2023-03-06T01:28:09.566Z,538.00
2023-03-06T01:29:09.615Z,542.00
2023-03-06T01:30:09.687Z,540.00
2023-03-06T01:31:09.765Z,538.00
2023-03-06T01:32:09.838Z,540.00
2023-03-06T01:33:09.889Z,538.00
2023-03-06T01:34:09.944Z,540.00
2023-03-06T01:35:10.019Z,538.00
2023-03-06T01:36:10.084Z,540.00
2023-03-06T01:37:10.143Z,537.00
2023-03-06T01:38:10.204Z,538.00
2023-03-06T01:39:10.290Z,537.00
2023-03-06T01:40:10.362Z,536.00
2023-03-06T01:41:10.401Z,539.00
2023-03-06T01:42:10.471Z,536.00
2023-03-06T01:43:10.538Z,541.00
2023-03-06T01:44:10.604Z,541.00
2023-03-06T01:45:10.674Z,541.00
2023-03-06T01:46:10.786Z,539.00
2023-03-06T01:47:10.798Z,537.00
2023-03-06T01:48:10.867Z,543.00
2023-03-06T01:49:10.913Z,538.00
2023-03-06T01:50:10.985Z,538.00
2023-03-06T01:51:11.071Z,537.00
2023-03-06T01:52:11.115Z,541.00
2023-03-06T01:53:11.163Z,537.00
2023-03-06T01:54:11.319Z,539.00
2023-03-06T01:55:11.350Z,539.00
2023-03-06T01:56:11.430Z,542.00
2023-03-06T01:57:11.489Z,538.00
2023-03-06T01:58:11.490Z,543.00
2023-03-06T01:59:11.540Z,541.00
2023-03-06T02:00:11.634Z,540.00
2023-03-06T02:01:11.761Z,535.00
2023-03-06T02:02:11.813Z,542.00
2023-03-06T02:03:11.826Z,540.00
2023-03-06T02:04:11.888Z,538.00
2023-03-06T02:05:12.009Z,540.00
2023-03-06T02:06:12.024Z,542.00
2023-03-06T02:07:12.090Z,542.00
2023-03-06T02:08:12.147Z,540.00
2023-03-06T02:09:12.214Z,544.00
2023-03-06T02:10:12.292Z,541.00
2023-03-06T02:12:16.331Z,500.00
2023-03-06T02:13:16.315Z,500.00
2023-03-06T02:14:16.328Z,500.00
2023-03-06T02:15:16.320Z,500.00
2023-03-06T02:16:16.338Z,500.00
2023-03-06T02:17:16.316Z,501.00
2023-03-06T02:18:16.330Z,505.00
2023-03-06T02:19:16.390Z,501.00
2023-03-06T02:20:16.346Z,502.00
2023-03-06T02:21:16.332Z,502.00
2023-03-06T02:22:16.339Z,504.00
2023-03-06T02:23:16.340Z,504.00
2023-03-06T02:24:16.350Z,500.00
2023-03-06T02:25:16.344Z,506.00
2023-03-06T02:26:16.351Z,505.00
2023-03-06T02:27:16.355Z,503.00
2023-03-06T02:28:16.352Z,505.00
2023-03-06T02:29:16.349Z,507.00
2023-03-06T02:30:16.359Z,504.00
2023-03-06T02:31:16.386Z,501.00
2023-03-06T03:23:17.742Z,511.00
2023-03-06T03:24:17.787Z,512.00
2023-03-06T03:25:17.832Z,512.00
2023-03-06T03:26:17.880Z,510.00
2023-03-06T03:27:17.901Z,505.00
2023-03-06T03:28:17.945Z,504.00
2023-03-06T03:29:17.993Z,504.00
2023-03-06T03:30:18.030Z,503.00
2023-03-06T03:31:18.111Z,511.00
2023-03-06T03:32:18.126Z,504.00
2023-03-06T03:33:18.135Z,504.00
2023-03-06T03:34:18.166Z,502.00
2023-03-06T03:35:18.202Z,506.00
2023-03-06T03:36:18.245Z,504.00
2023-03-06T03:37:18.245Z,502.00
2023-03-06T03:38:18.266Z,502.00
2023-03-06T03:39:18.286Z,502.00
2023-03-06T03:40:18.304Z,502.00
2023-03-06T03:41:18.342Z,505.00
2023-03-06T03:42:18.357Z,506.00
2023-03-06T03:43:18.379Z,504.00
2023-03-06T03:44:18.391Z,503.00
2023-03-06T03:45:18.406Z,504.00
2023-03-06T03:46:18.441Z,506.00
2023-03-06T03:47:18.421Z,508.00
2023-03-06T03:48:18.505Z,506.00
2023-03-06T03:49:18.445Z,501.00
2023-03-06T03:50:18.463Z,505.00
2023-03-06T03:51:18.464Z,502.00
2023-03-06T03:52:18.470Z,502.00
2023-03-06T03:53:18.485Z,504.00
2023-03-06T03:54:18.486Z,504.00
2023-03-06T03:55:18.491Z,504.00
2023-03-06T03:56:18.487Z,504.00
2023-03-06T03:57:18.505Z,505.00
2023-03-06T03:58:18.499Z,503.00
2023-03-06T03:59:18.500Z,504.00
2023-03-06T04:00:18.500Z,503.00
2023-03-06T04:01:18.503Z,505.00
2023-03-06T04:02:18.556Z,508.00
2023-03-06T04:03:18.519Z,505.00
2023-03-06T04:04:18.522Z,504.00
2023-03-06T04:05:18.536Z,504.00
2023-03-06T04:06:18.534Z,503.00
2023-03-06T04:07:18.537Z,504.00
2023-03-06T04:08:18.540Z,503.00
2023-03-06T04:09:18.550Z,506.00
2023-03-06T04:10:19.541Z,508.00
2023-03-06T04:11:18.550Z,510.00
2023-03-06T04:12:18.550Z,510.00
2023-03-06T04:13:18.557Z,505.00
2023-03-06T04:14:18.559Z,504.00
2023-03-06T04:15:18.575Z,505.00
2023-03-06T04:16:18.601Z,507.00
2023-03-06T04:17:18.584Z,508.00
2023-03-06T04:18:18.583Z,507.00
2023-03-06T04:19:18.600Z,506.00
2023-03-06T04:20:18.593Z,504.00
2023-03-06T04:21:18.604Z,506.00
2023-03-06T04:22:18.616Z,504.00
2023-03-06T04:23:18.629Z,505.00
2023-03-06T04:24:18.624Z,506.00
2023-03-06T04:25:18.636Z,506.00
2023-03-06T04:26:18.660Z,506.00
2023-03-06T04:27:18.658Z,504.00
2023-03-06T04:28:18.656Z,506.00
2023-03-06T04:29:18.684Z,506.00
2023-03-06T04:30:18.669Z,507.00
2023-03-06T04:31:18.697Z,503.00
2023-03-06T04:32:21.395Z,506.00
2023-03-06T04:33:18.689Z,507.00
2023-03-06T04:34:18.685Z,508.00
2023-03-06T04:35:18.704Z,506.00
2023-03-06T04:36:18.677Z,505.00
2023-03-06T04:37:18.671Z,506.00
2023-03-06T04:38:18.665Z,504.00
2023-03-06T04:39:18.680Z,509.00
2023-03-06T04:40:18.682Z,507.00
2023-03-06T04:41:18.675Z,508.00
2023-03-06T04:42:18.670Z,508.00
2023-03-06T04:43:18.681Z,509.00
2023-03-06T04:44:18.675Z,510.00
2023-03-06T04:45:18.671Z,509.00
2023-03-06T04:46:18.665Z,509.00
2023-03-06T04:47:19.327Z,509.00
2023-03-06T04:48:18.684Z,509.00
2023-03-06T04:49:18.683Z,512.00
2023-03-06T04:50:18.674Z,510.00
2023-03-06T04:51:18.678Z,507.00
2023-03-06T04:52:18.683Z,511.00
2023-03-06T04:53:18.687Z,509.00
2023-03-06T04:54:19.051Z,508.00
2023-03-06T04:55:18.685Z,510.00
2023-03-06T04:56:18.699Z,509.00
2023-03-06T04:57:18.688Z,507.00
2023-03-06T04:58:18.689Z,514.00
2023-03-06T04:59:18.725Z,511.00
2023-03-06T05:00:18.686Z,510.00
2023-03-06T05:01:18.776Z,509.00
2023-03-06T05:02:18.742Z,512.00
2023-03-06T05:03:18.688Z,514.00
2023-03-06T05:04:18.691Z,510.00
2023-03-06T05:05:18.687Z,511.00
2023-03-06T05:06:18.707Z,513.00
2023-03-06T05:07:18.681Z,510.00
2023-03-06T05:08:18.679Z,511.00
2023-03-06T05:09:18.678Z,512.00
2023-03-06T05:10:18.690Z,514.00
2023-03-06T05:11:18.675Z,508.00
2023-03-06T05:12:18.685Z,511.00
2023-03-06T05:13:18.680Z,511.00
2023-03-06T05:14:18.682Z,511.00
2023-03-06T05:15:18.707Z,510.00
2023-03-06T05:16:18.741Z,512.00
2023-03-06T05:17:18.686Z,507.00
2023-03-06T05:18:18.686Z,510.00
2023-03-06T05:19:18.698Z,513.00
2023-03-06T05:20:18.700Z,513.00
2023-03-06T05:21:18.697Z,509.00
2023-03-06T05:22:18.703Z,509.00
2023-03-06T05:23:18.698Z,511.00
2023-03-06T05:24:18.691Z,510.00
2023-03-06T05:25:18.696Z,513.00
2023-03-06T05:26:18.694Z,507.00
2023-03-06T05:27:18.692Z,513.00
2023-03-06T05:28:18.689Z,509.00
2023-03-06T05:29:18.694Z,510.00
2023-03-06T05:30:18.704Z,510.00
2023-03-06T05:31:18.735Z,511.00
2023-03-06T05:32:19.580Z,510.00
2023-03-06T05:33:18.706Z,509.00
2023-03-06T05:34:18.700Z,511.00
2023-03-06T05:35:18.775Z,508.00
2023-03-06T05:36:18.735Z,510.00
2023-03-06T05:37:18.700Z,511.00
2023-03-06T05:38:18.716Z,512.00
2023-03-06T05:39:18.712Z,510.00
2023-03-06T05:40:18.713Z,509.00
2023-03-06T05:41:18.706Z,512.00
2023-03-06T05:42:18.707Z,510.00
2023-03-06T05:43:18.712Z,514.00
2023-03-06T05:44:18.714Z,509.00
2023-03-06T05:45:18.723Z,508.00
2023-03-06T05:46:18.817Z,510.00
2023-03-06T05:47:18.710Z,511.00
2023-03-06T05:48:18.719Z,508.00
2023-03-06T05:49:18.716Z,508.00
2023-03-06T05:50:18.714Z,510.00
2023-03-06T05:51:18.726Z,512.00
2023-03-06T05:52:18.717Z,509.00
2023-03-06T05:53:18.732Z,506.00
2023-03-06T05:54:18.709Z,507.00
2023-03-06T05:55:18.717Z,512.00
2023-03-06T05:56:18.718Z,509.00
2023-03-06T05:57:18.728Z,509.00
2023-03-06T05:58:18.724Z,509.00
2023-03-06T05:59:18.719Z,508.00
2023-03-06T06:00:18.722Z,512.00
2023-03-06T06:01:18.744Z,511.00
2023-03-06T06:02:18.802Z,511.00
2023-03-06T06:03:18.780Z,510.00
2023-03-06T06:04:18.739Z,514.00
2023-03-06T06:05:18.743Z,512.00
2023-03-06T06:06:18.744Z,512.00
2023-03-06T06:07:18.740Z,510.00
2023-03-06T06:08:18.736Z,513.00
2023-03-06T06:09:18.733Z,512.00
2023-03-06T06:10:18.770Z,511.00
2023-03-06T06:11:18.748Z,513.00
2023-03-06T06:12:18.738Z,514.00
2023-03-06T06:13:18.739Z,512.00
2023-03-06T06:14:18.746Z,514.00
2023-03-06T06:15:18.740Z,511.00
2023-03-06T06:16:18.811Z,514.00
2023-03-06T06:17:18.746Z,513.00
2023-03-06T06:18:18.749Z,513.00
2023-03-06T06:19:18.763Z,513.00
2023-03-06T06:20:18.761Z,512.00
2023-03-06T06:21:18.761Z,507.00
2023-03-06T06:22:18.766Z,504.00
2023-03-06T06:23:18.754Z,508.00
2023-03-06T06:24:18.763Z,515.00
2023-03-06T06:25:18.776Z,511.00
2023-03-06T06:26:18.780Z,511.00
2023-03-06T06:27:18.797Z,515.00
2023-03-06T06:28:18.798Z,519.00
2023-03-06T06:29:18.793Z,518.00
2023-03-06T06:30:18.799Z,519.00
2023-03-06T06:31:18.820Z,526.00
2023-03-06T06:32:18.814Z,531.00
2023-03-06T06:33:19.584Z,542.00
2023-03-06T06:34:18.810Z,544.00
2023-03-06T06:35:18.817Z,553.00
2023-03-06T06:36:18.828Z,568.00
2023-03-06T06:37:18.812Z,576.00
2023-03-06T06:38:18.806Z,591.00
2023-03-06T06:39:18.807Z,605.00
2023-03-06T06:41:39.329Z,642.00
2023-03-06T06:42:33.343Z,643.00
2023-03-06T06:43:19.802Z,644.00
2023-03-06T06:44:18.822Z,651.00
2023-03-06T06:45:18.780Z,668.00
2023-03-06T06:46:59.011Z,734.00
2023-03-06T06:47:23.549Z,646.00
2023-03-06T06:48:18.823Z,646.00
2023-03-06T06:49:18.783Z,662.00
2023-03-06T06:50:18.745Z,729.00
2023-03-06T06:51:19.752Z,648.00
2023-03-06T06:52:18.766Z,675.00
2023-03-06T06:53:18.708Z,776.00
2023-03-06T06:54:18.722Z,940.00
2023-03-06T06:55:18.688Z,1152.00
2023-03-06T06:56:18.683Z,1200.00
2023-03-06T06:57:18.677Z,1226.00
2023-03-06T06:58:18.680Z,1254.00
2023-03-06T06:59:18.652Z,1293.00
2023-03-06T07:00:18.666Z,1311.00
2023-03-06T07:01:18.683Z,1345.00
2023-03-06T07:02:18.708Z,1383.00
2023-03-06T07:03:18.739Z,1407.00
2023-03-06T07:04:18.776Z,1456.00
2023-03-06T07:05:20.866Z,1479.00
2023-03-06T07:06:18.874Z,1510.00
2023-03-06T07:07:18.910Z,1550.00
2023-03-06T07:08:18.960Z,1583.00
2023-03-06T07:09:19.004Z,1627.00
2023-03-06T07:10:20.754Z,1691.00
2023-03-06T07:11:19.089Z,1751.00
2023-03-06T07:12:19.151Z,1792.00
2023-03-06T07:13:19.171Z,1816.00
2023-03-06T07:14:19.218Z,1835.00
2023-03-06T07:15:19.250Z,1861.00
2023-03-06T07:16:20.135Z,1887.00
2023-03-06T07:17:19.329Z,1927.00
2023-03-06T07:18:19.361Z,1955.00
2023-03-06T07:19:19.399Z,1987.00
2023-03-06T07:20:19.421Z,2017.00
2023-03-06T07:21:19.467Z,2054.00
2023-03-06T07:22:19.502Z,2112.00
2023-03-06T07:23:19.542Z,2141.00
2023-03-06T07:24:19.579Z,2196.00
2023-03-06T07:25:19.597Z,2277.00
2023-03-06T07:26:19.626Z,2315.00
2023-03-06T07:27:19.660Z,2339.00
2023-03-06T07:28:19.793Z,2376.00
2023-03-06T07:29:19.734Z,2398.00
2023-03-06T07:30:19.782Z,2315.00
2023-03-06T07:31:19.854Z,2307.00
2023-03-06T07:32:19.913Z,2303.00
2023-03-06T07:33:19.939Z,2274.00
2023-03-06T07:34:19.967Z,2229.00
2023-03-06T07:35:20.919Z,2187.00
2023-03-06T07:36:20.056Z,2091.00
2023-03-06T07:37:19.995Z,2091.00
2023-03-06T07:38:19.984Z,2003.00
2023-03-06T07:39:19.989Z,1958.00
2023-03-06T07:40:20.018Z,1946.00
2023-03-06T07:41:22.516Z,1907.00
2023-03-06T07:42:20.254Z,1869.00
2023-03-06T07:43:20.251Z,1838.00
2023-03-06T07:44:20.255Z,1808.00
2023-03-06T07:45:20.490Z,1804.00
2023-03-06T07:46:20.263Z,1794.00
2023-03-06T07:47:20.290Z,1781.00
2023-03-06T07:48:20.354Z,1784.00
2023-03-06T07:49:20.407Z,1784.00
2023-03-06T07:50:20.467Z,1829.00
2023-03-06T07:51:20.526Z,1838.00
2023-03-06T07:52:20.587Z,1817.00
2023-03-06T07:53:20.650Z,1828.00
2023-03-06T07:54:20.714Z,1822.00
2023-03-06T07:55:20.760Z,1831.00
2023-03-06T07:56:20.777Z,1840.00
2023-03-06T07:57:20.802Z,1859.00
2023-03-06T07:58:20.838Z,1865.00
2023-03-06T08:47:21.769Z,500.00
2023-03-06T08:48:21.793Z,500.00
2023-03-06T08:49:21.818Z,500.00
2023-03-06T08:50:21.846Z,501.00
2023-03-06T08:51:21.864Z,503.00
2023-03-06T08:52:21.896Z,500.00
2023-03-06T08:53:28.018Z,503.00
2023-03-06T08:54:22.937Z,502.00
2023-03-06T08:55:21.935Z,483.00
2023-03-06T08:56:21.951Z,467.00
2023-03-06T08:57:21.954Z,453.00
2023-03-06T08:58:21.973Z,447.00
2023-03-06T08:59:21.974Z,492.00
2023-03-06T09:00:22.035Z,503.00
2023-03-06T09:01:22.020Z,504.00
2023-03-06T09:02:22.016Z,501.00
2023-03-06T09:03:22.014Z,502.00
2023-03-06T09:04:22.032Z,502.00
2023-03-06T09:05:22.017Z,504.00
2023-03-06T09:06:22.018Z,504.00
2023-03-06T09:07:22.024Z,500.00
2023-03-06T09:08:22.033Z,501.00
2023-03-06T09:09:22.052Z,500.00
2023-03-06T09:10:22.060Z,503.00
2023-03-06T09:11:22.042Z,501.00
2023-03-06T09:12:22.044Z,502.00
2023-03-06T09:13:22.051Z,518.00
2023-03-06T09:14:22.067Z,580.00
2023-03-06T09:15:22.076Z,603.00
2023-03-06T09:16:22.225Z,642.00
2023-03-06T09:17:22.147Z,798.00
2023-03-06T09:18:22.066Z,863.00
2023-03-06T09:19:22.077Z,918.00
2023-03-06T09:20:22.075Z,993.00
2023-03-06T09:21:22.157Z,1088.00
2023-03-06T09:22:22.211Z,1145.00
2023-03-06T09:23:22.238Z,1186.00
2023-03-06T09:24:22.291Z,1213.00
2023-03-06T09:25:22.451Z,1297.00
2023-03-06T09:26:24.525Z,1362.00
2023-03-06T09:27:22.344Z,1316.00
2023-03-06T09:28:22.343Z,874.00
2023-03-06T09:29:22.382Z,736.00
2023-03-06T09:30:22.474Z,634.00
2023-03-06T09:31:22.352Z,640.00
2023-03-06T09:32:22.345Z,782.00
2023-03-06T09:33:22.326Z,999.00
2023-03-06T09:34:22.338Z,1101.00
2023-03-06T09:35:22.348Z,1200.00
2023-03-06T09:36:22.330Z,1242.00
2023-03-06T09:37:22.304Z,1319.00
2023-03-06T09:38:23.167Z,1372.00
2023-03-06T09:39:23.153Z,1413.00
2023-03-06T09:40:22.280Z,1460.00
2023-03-06T09:41:22.260Z,1511.00
2023-03-06T10:00:23.691Z,757.00
2023-03-06T11:12:21.941Z,3080.00
2023-03-06T11:19:21.882Z,3155.00
2023-03-06T11:35:22.435Z,3418.00
2023-03-06T11:51:22.849Z,3764.00
2023-03-06T11:53:22.963Z,3792.00
2023-03-06T12:05:23.387Z,3929.00
2023-03-06T12:06:23.378Z,3908.00
2023-03-06T12:07:23.387Z,3905.00
2023-03-06T12:08:23.409Z,3911.00
2023-03-06T12:09:23.393Z,3892.00
2023-03-06T12:10:23.664Z,3898.00
2023-03-06T12:11:23.474Z,3873.00
2023-03-06T12:12:23.375Z,3839.00
2023-03-06T12:14:23.336Z,3841.00
2023-03-06T12:15:23.324Z,3834.00
2023-03-06T12:16:23.344Z,3824.00
2023-03-06T12:17:23.306Z,3813.00
2023-03-06T12:18:23.309Z,3794.00
2023-03-06T12:19:23.333Z,3808.00
2023-03-06T12:20:23.308Z,3780.00
2023-03-06T12:21:23.342Z,3781.00
2023-03-06T12:22:23.339Z,3763.00
2023-03-06T12:23:23.372Z,3737.00
2023-03-06T12:24:23.394Z,3573.00
2023-03-06T12:25:23.427Z,3645.00
2023-03-06T12:26:23.492Z,3556.00
2023-03-06T12:27:23.515Z,3560.00
2023-03-06T12:28:23.574Z,3447.00
2023-03-06T12:29:23.632Z,3538.00
2023-03-06T12:30:23.687Z,3468.00
2023-03-06T12:31:23.778Z,3424.00
2023-03-06T12:32:23.799Z,3371.00
2023-03-06T12:33:23.823Z,3350.00
2023-03-06T12:34:23.854Z,3301.00
2023-03-06T12:35:23.932Z,3235.00
2023-03-06T12:36:23.970Z,3191.00
2023-03-06T12:37:23.968Z,3164.00
2023-03-06T12:38:24.000Z,3137.00
2023-03-06T12:39:24.185Z,3119.00
2023-03-06T12:40:24.322Z,3085.00
2023-03-06T12:41:24.117Z,3069.00
2023-03-06T12:42:24.177Z,3061.00
2023-03-06T12:43:24.208Z,3026.00
2023-03-06T12:44:24.248Z,3013.00
2023-03-06T12:45:24.816Z,3031.00
2023-03-06T12:46:24.382Z,3016.00
2023-03-06T12:47:24.391Z,2996.00
2023-03-06T12:48:24.525Z,2990.00
2023-03-06T12:49:31.982Z,2977.00
2023-03-06T12:50:25.460Z,2977.00
2023-03-06T12:51:24.446Z,2976.00
2023-03-06T12:52:29.611Z,2948.00
2023-03-06T12:53:25.423Z,2977.00
2023-03-06T12:54:24.406Z,2938.00
2023-03-06T12:55:25.801Z,2948.00
2023-03-06T12:56:24.369Z,2927.00
2023-03-06T12:57:24.341Z,2919.00
2023-03-06T12:58:24.353Z,2912.00
2023-03-06T12:59:24.310Z,2913.00
2023-03-06T13:00:24.312Z,2889.00
2023-03-06T13:01:24.900Z,2885.00
2023-03-06T13:02:24.461Z,2887.00
2023-03-06T13:03:24.424Z,2873.00
2023-03-06T13:04:24.463Z,2871.00
2023-03-06T13:05:24.528Z,2857.00
2023-03-06T13:06:24.566Z,2863.00
2023-03-06T13:07:24.612Z,2847.00
2023-03-06T13:08:24.659Z,2850.00
2023-03-06T13:09:24.695Z,2836.00
2023-03-06T13:10:24.774Z,2845.00
2023-03-06T13:11:24.787Z,2829.00
2023-03-06T13:12:24.824Z,2812.00
2023-03-06T13:13:24.875Z,2806.00
2023-03-06T13:14:24.923Z,2810.00
2023-03-06T13:15:24.990Z,2793.00
2023-03-06T13:16:25.038Z,2794.00
2023-03-06T13:17:25.079Z,2783.00
2023-03-06T13:18:25.108Z,2784.00
2023-03-06T13:19:25.155Z,2765.00
2023-03-06T13:20:25.199Z,2770.00
2023-03-06T13:21:25.240Z,2766.00
2023-03-06T13:22:25.292Z,2762.00
2023-03-06T13:23:25.323Z,2749.00
2023-03-06T13:24:25.379Z,2746.00
2023-03-06T13:26:25.486Z,2717.00
2023-03-06T13:27:25.551Z,2709.00
2023-03-06T13:28:25.586Z,2706.00
2023-03-06T13:29:25.635Z,2709.00
2023-03-06T13:30:25.674Z,2690.00
2023-03-06T13:31:27.816Z,2699.00
2023-03-06T13:32:25.797Z,2692.00
2023-03-06T13:33:25.854Z,2689.00
2023-03-06T13:34:25.855Z,2678.00
2023-03-06T13:35:25.927Z,2678.00
2023-03-06T13:36:25.972Z,2680.00
2023-03-06T13:37:25.994Z,2665.00
2023-03-06T13:38:26.061Z,2667.00
2023-03-06T13:39:26.108Z,2647.00
2023-03-06T13:40:26.127Z,2651.00
2023-03-06T13:41:26.177Z,2644.00
2023-03-06T13:42:26.245Z,2646.00
2023-03-06T13:43:26.249Z,2629.00
2023-03-06T13:44:26.294Z,2612.00
2023-03-06T13:45:26.312Z,2615.00
2023-03-06T13:46:26.438Z,2615.00
2023-03-06T13:47:26.389Z,2614.00
2023-03-06T13:48:45.075Z,2605.00
2023-03-06T13:49:27.420Z,2606.00
2023-03-06T13:50:26.401Z,2607.00
2023-03-06T13:51:26.388Z,2588.00
2023-03-06T13:52:26.374Z,2562.00
2023-03-06T13:53:26.361Z,2561.00
2023-03-06T13:54:26.368Z,2555.00
2023-03-06T13:55:26.328Z,2554.00
2023-03-06T13:56:26.326Z,2542.00
2023-03-06T13:57:26.314Z,2536.00
2023-03-06T13:58:26.343Z,2544.00
2023-03-06T13:59:26.455Z,2524.00
2023-03-06T14:00:26.431Z,2527.00
2023-03-06T14:01:26.522Z,2515.00
2023-03-06T14:02:26.551Z,2511.00
2023-03-06T14:03:26.567Z,2506.00
2023-03-06T14:04:26.619Z,2496.00
2023-03-06T14:05:26.653Z,2500.00
2023-03-06T14:06:26.701Z,2491.00
2023-03-06T14:07:26.742Z,2493.00
2023-03-06T14:08:26.787Z,2476.00
2023-03-06T14:09:26.836Z,2473.00
2023-03-06T14:10:26.892Z,2467.00
2023-03-06T14:11:26.940Z,2470.00
2023-03-06T14:12:26.981Z,2452.00
2023-03-06T14:13:32.350Z,2451.00
2023-03-06T14:14:27.999Z,2452.00
2023-03-06T14:15:26.988Z,2452.00
2023-03-06T14:16:27.879Z,2457.00
2023-03-06T14:17:26.975Z,2452.00
2023-03-06T14:18:26.983Z,2454.00
2023-03-06T14:19:26.955Z,2439.00
2023-03-06T14:20:26.946Z,2438.00
2023-03-06T14:21:26.927Z,2436.00
2023-03-06T14:22:26.925Z,2421.00
2023-03-06T14:23:26.959Z,2412.00
2023-03-06T14:24:27.021Z,2419.00
2023-03-06T14:25:27.066Z,2413.00
2023-03-06T14:26:27.103Z,2413.00
2023-03-06T14:27:27.148Z,2403.00
2023-03-06T14:28:27.185Z,2399.00
2023-03-06T14:29:27.225Z,2396.00
2023-03-06T14:30:27.257Z,2397.00
2023-03-06T14:31:27.338Z,2390.00
2023-03-06T14:32:27.354Z,2384.00
2023-03-06T14:33:27.336Z,2376.00
2023-03-06T14:34:27.404Z,2381.00
2023-03-06T14:35:27.359Z,2374.00
2023-03-06T14:36:27.366Z,2374.00
2023-03-06T14:37:27.401Z,2367.00
2023-03-06T14:38:27.427Z,2361.00
2023-03-06T14:39:27.449Z,2352.00
2023-03-06T14:40:27.473Z,2361.00
2023-03-06T14:41:27.562Z,2346.00
2023-03-06T14:42:27.529Z,2338.00
2023-03-06T14:43:27.527Z,2340.00
2023-03-06T14:44:27.537Z,2337.00
2023-03-06T14:45:27.528Z,2329.00
2023-03-06T14:46:27.574Z,2330.00
2023-03-06T14:47:27.547Z,2325.00
2023-03-06T14:48:27.549Z,2319.00
2023-03-06T14:49:27.561Z,2322.00
2023-03-06T14:50:27.555Z,2316.00
2023-03-06T14:51:27.550Z,2303.00
2023-03-06T14:52:27.543Z,2310.00
2023-03-06T14:53:27.533Z,2304.00
2023-03-06T14:54:27.571Z,2296.00
2023-03-06T14:55:27.530Z,2291.00
2023-03-06T14:56:27.533Z,2296.00
2023-03-06T14:57:27.523Z,2289.00
2023-03-06T14:58:27.512Z,2275.00
2023-03-06T14:59:27.515Z,2277.00
2023-03-06T15:00:27.585Z,2278.00
2023-03-06T15:01:27.562Z,2270.00
2023-03-06T15:02:27.565Z,2278.00
2023-03-06T15:03:27.508Z,2268.00
2023-03-06T15:04:27.521Z,2264.00
2023-03-06T15:05:27.493Z,2256.00
2023-03-06T15:06:27.503Z,2257.00
2023-03-06T15:07:27.491Z,2249.00
2023-03-06T15:08:27.487Z,2244.00
2023-03-06T15:09:27.484Z,2237.00
2023-03-06T15:10:27.487Z,2232.00
2023-03-06T15:11:27.487Z,2236.00
2023-03-06T15:12:27.498Z,2229.00
2023-03-06T15:13:27.484Z,2222.00
2023-03-06T15:14:27.493Z,2221.00
2023-03-06T15:15:27.487Z,2220.00
2023-03-06T15:16:29.933Z,2211.00
2023-03-06T15:17:27.477Z,2215.00
2023-03-06T15:18:27.501Z,2214.00
2023-03-06T15:19:27.454Z,2208.00
2023-03-06T15:20:27.435Z,2209.00
2023-03-06T15:21:27.445Z,2203.00
2023-03-06T15:22:27.425Z,2195.00
2023-03-06T15:23:27.420Z,2196.00
2023-03-06T15:24:27.406Z,2194.00
2023-03-06T15:25:27.406Z,2182.00
2023-03-06T15:26:29.288Z,2185.00
2023-03-06T15:27:27.373Z,2186.00
2023-03-06T15:28:27.374Z,2186.00
2023-03-06T15:29:27.355Z,2186.00
2023-03-06T15:30:27.341Z,2183.00
2023-03-06T15:31:27.404Z,2176.00
2023-03-06T15:32:27.411Z,2180.00
2023-03-06T15:33:27.327Z,2170.00
2023-03-06T15:34:27.381Z,2168.00
2023-03-06T15:35:27.325Z,2168.00
2023-03-06T15:36:27.292Z,2165.00
2023-03-06T15:37:27.289Z,2163.00
2023-03-06T15:38:27.295Z,2154.00
2023-03-06T15:39:27.274Z,2156.00
2023-03-06T15:40:27.278Z,2151.00
2023-03-06T15:41:27.260Z,2146.00
2023-03-06T15:42:27.256Z,2137.00
2023-03-06T15:43:27.248Z,2141.00
2023-03-06T15:44:27.244Z,2129.00
2023-03-06T15:45:27.251Z,2132.00
2023-03-06T15:46:27.220Z,2128.00
2023-03-06T15:47:27.211Z,2121.00
2023-03-06T15:48:27.213Z,2120.00
2023-03-06T15:49:27.206Z,2120.00
2023-03-06T15:50:27.213Z,2108.00
2023-03-06T15:51:27.191Z,2102.00
2023-03-06T15:52:27.200Z,2109.00
2023-03-06T15:53:27.200Z,2104.00
2023-03-06T15:54:27.220Z,2098.00
2023-03-06T15:55:27.242Z,2093.00
2023-03-06T15:56:27.240Z,2097.00
2023-03-06T15:57:27.246Z,2090.00
2023-03-06T15:58:27.262Z,2093.00
2023-03-06T15:59:27.272Z,2082.00
2023-03-06T16:00:28.332Z,2080.00
2023-03-06T16:01:27.332Z,2078.00
2023-03-06T16:02:27.316Z,2077.00
2023-03-06T16:03:27.387Z,2061.00
2023-03-06T16:04:27.420Z,2064.00
2023-03-06T16:05:27.356Z,2065.00
2023-03-06T16:06:27.369Z,2063.00
2023-03-06T16:07:28.381Z,2058.00
2023-03-06T16:08:27.400Z,2059.00
2023-03-06T16:09:27.423Z,2050.00
2023-03-06T16:10:27.461Z,2047.00
2023-03-06T16:11:32.561Z,2042.00
2023-03-06T16:12:28.432Z,2043.00
2023-03-06T16:13:27.423Z,2045.00
2023-03-06T16:14:27.412Z,2043.00
2023-03-06T16:15:27.416Z,2043.00
2023-03-06T16:16:27.426Z,2032.00
2023-03-06T16:17:27.397Z,2036.00
2023-03-06T16:18:27.387Z,2028.00
2023-03-06T16:19:28.024Z,2029.00
2023-03-06T16:20:28.301Z,2024.00
2023-03-06T16:21:27.351Z,2019.00
2023-03-06T16:22:27.333Z,2019.00
2023-03-06T16:23:27.327Z,2015.00
2023-03-06T16:24:27.323Z,2016.00
2023-03-06T16:25:27.318Z,2009.00
2023-03-06T16:26:27.307Z,2000.00
2023-03-06T16:27:27.302Z,2006.00
2023-03-06T16:28:27.288Z,2005.00
2023-03-06T16:29:27.263Z,2003.00
2023-03-06T16:30:27.250Z,2001.00
2023-03-06T16:31:27.256Z,1988.00
2023-03-06T16:32:28.815Z,1983.00
2023-03-06T16:33:27.271Z,1994.00
2023-03-06T16:34:27.278Z,1989.00
2023-03-06T16:35:27.341Z,1984.00
2023-03-06T16:36:27.316Z,1981.00
2023-03-06T16:37:27.342Z,1982.00
2023-03-06T16:38:27.365Z,1967.00
2023-03-06T16:39:27.383Z,1970.00
2023-03-06T16:40:27.408Z,1968.00
2023-03-06T16:41:27.423Z,1965.00
2023-03-06T16:42:27.457Z,1957.00
2023-03-06T16:43:27.469Z,1959.00
2023-03-06T16:44:27.496Z,1964.00
2023-03-06T16:45:27.517Z,1953.00
2023-03-06T16:46:27.589Z,1955.00
2023-03-06T16:47:27.543Z,1957.00
2023-03-06T16:48:27.570Z,1948.00
2023-03-06T16:49:27.637Z,1948.00
2023-03-06T16:50:27.603Z,1946.00
2023-03-06T16:51:27.621Z,1941.00
2023-03-06T16:52:27.650Z,1938.00
2023-03-06T16:53:27.680Z,1934.00
2023-03-06T16:54:27.680Z,1931.00
2023-03-06T16:55:27.719Z,1934.00
2023-03-06T16:56:27.730Z,1932.00
2023-03-06T16:57:27.745Z,1931.00
2023-03-06T16:58:27.773Z,1923.00
2023-03-06T16:59:27.789Z,1925.00
2023-03-06T17:00:30.025Z,1915.00
2023-03-06T17:01:27.908Z,1918.00
2023-03-06T17:02:27.907Z,1913.00
2023-03-06T17:03:27.893Z,1913.00
2023-03-06T17:04:27.905Z,1909.00
2023-03-06T17:05:27.928Z,1912.00
2023-03-06T17:06:27.962Z,1900.00
2023-03-06T17:07:27.998Z,1916.00
2023-03-06T17:08:28.025Z,1908.00
2023-03-06T17:09:28.112Z,1898.00
2023-03-06T17:10:28.078Z,1897.00
2023-03-06T19:15:33.287Z,1598.00